sensor_id;sensor_type;location;lat;lon;timestamp;P1;durP1;ratioP1;P2;durP2;ratioP2
23282;SDS011;11810;51.178;3.878;2022-09-11T00:00:26;0.52;;;0.52;;
23282;SDS011;11810;51.178;3.878;2022-09-11T00:02:52;0.10;;;0.10;;
23282;SDS011;11810;51.178;3.878;2022-09-11T00:05:17;0.10;;;0.10;;
23282;SDS011;11810;51.178;3.878;2022-09-11T00:07:43;0.30;;;0.30;;
23282;SDS011;11810;51.178;3.878;2022-09-11T00:10:11;0.13;;;0.13;;
23282;SDS011;11810;51.178;3.878;2022-09-11T00:12:37;0.10;;;0.10;;
23282;SDS011;11810;51.178;3.878;2022-09-11T00:15:03;0.45;;;0.45;;
23282;SDS011;11810;51.178;3.878;2022-09-11T00:17:29;0.30;;;0.30;;
23282;SDS011;11810;51.178;3.878;2022-09-11T00:19:55;0.30;;;0.30;;
23282;SDS011;11810;51.178;3.878;2022-09-11T00:22:21;3.20;;;1.58;;
23282;SDS011;11810;51.178;3.878;2022-09-11T00:24:47;0.20;;;0.20;;
23282;SDS011;11810;51.178;3.878;2022-09-11T00:27:15;0.30;;;0.30;;
23282;SDS011;11810;51.178;3.878;2022-09-11T00:29:41;0.10;;;0.10;;
23282;SDS011;11810;51.178;3.878;2022-09-11T00:32:07;1.10;;;0.75;;
23282;SDS011;11810;51.178;3.878;2022-09-11T00:34:33;0.15;;;0.15;;
23282;SDS011;11810;51.178;3.878;2022-09-11T00:36:59;0.10;;;0.10;;
23282;SDS011;11810;51.178;3.878;2022-09-11T00:39:25;0.10;;;0.10;;
23282;SDS011;11810;51.178;3.878;2022-09-11T00:41:51;0.22;;;0.20;;
23282;SDS011;11810;51.178;3.878;2022-09-11T00:46:50;0.10;;;0.10;;
23282;SDS011;11810;51.178;3.878;2022-09-11T00:52:25;0.20;;;0.20;;
23282;SDS011;11810;51.178;3.878;2022-09-11T00:55:01;0.40;;;0.40;;
23282;SDS011;11810;51.178;3.878;2022-09-11T00:57:41;2.50;;;2.17;;
23282;SDS011;11810;51.178;3.878;2022-09-11T01:00:23;0.60;;;0.60;;
23282;SDS011;11810;51.178;3.878;2022-09-11T01:02:50;0.32;;;0.32;;
23282;SDS011;11810;51.178;3.878;2022-09-11T01:05:18;1.60;;;1.50;;
23282;SDS011;11810;51.178;3.878;2022-09-11T01:07:46;1.00;;;1.00;;
23282;SDS011;11810;51.178;3.878;2022-09-11T01:10:18;0.15;;;0.15;;
23282;SDS011;11810;51.178;3.878;2022-09-11T01:16:24;0.85;;;0.85;;
23282;SDS011;11810;51.178;3.878;2022-09-11T01:29:50;0.20;;;0.20;;
23282;SDS011;11810;51.178;3.878;2022-09-11T01:32:22;0.15;;;0.15;;
23282;SDS011;11810;51.178;3.878;2022-09-11T01:35:06;0.90;;;0.90;;
23282;SDS011;11810;51.178;3.878;2022-09-11T01:37:39;0.45;;;0.45;;
23282;SDS011;11810;51.178;3.878;2022-09-11T01:40:11;8.15;;;0.73;;
23282;SDS011;11810;51.178;3.878;2022-09-11T01:42:45;0.10;;;0.10;;
23282;SDS011;11810;51.178;3.878;2022-09-11T01:45:16;0.68;;;0.68;;
23282;SDS011;11810;51.178;3.878;2022-09-11T01:47:43;0.40;;;0.40;;
23282;SDS011;11810;51.178;3.878;2022-09-11T01:50:11;0.47;;;0.47;;
23282;SDS011;11810;51.178;3.878;2022-09-11T01:52:41;0.28;;;0.28;;
23282;SDS011;11810;51.178;3.878;2022-09-11T01:55:30;0.30;;;0.30;;
23282;SDS011;11810;51.178;3.878;2022-09-11T01:58:07;0.20;;;0.20;;
23282;SDS011;11810;51.178;3.878;2022-09-11T02:00:35;0.47;;;0.47;;
23282;SDS011;11810;51.178;3.878;2022-09-11T02:03:15;0.45;;;0.45;;
23282;SDS011;11810;51.178;3.878;2022-09-11T02:05:48;0.45;;;0.35;;
23282;SDS011;11810;51.178;3.878;2022-09-11T02:08:27;0.47;;;0.47;;
23282;SDS011;11810;51.178;3.878;2022-09-11T02:11:07;0.10;;;0.10;;
23282;SDS011;11810;51.178;3.878;2022-09-11T02:13:56;0.20;;;0.20;;
23282;SDS011;11810;51.178;3.878;2022-09-11T02:16:35;0.73;;;0.73;;
23282;SDS011;11810;51.178;3.878;2022-09-11T02:19:11;1.35;;;1.25;;
23282;SDS011;11810;51.178;3.878;2022-09-11T02:21:40;0.20;;;0.20;;
23282;SDS011;11810;51.178;3.878;2022-09-11T02:24:06;0.13;;;0.13;;
23282;SDS011;11810;51.178;3.878;2022-09-11T02:26:35;0.10;;;0.10;;
23282;SDS011;11810;51.178;3.878;2022-09-11T02:29:04;1.95;;;1.15;;
23282;SDS011;11810;51.178;3.878;2022-09-11T02:31:31;0.43;;;0.43;;
23282;SDS011;11810;51.178;3.878;2022-09-11T02:33:58;0.20;;;0.20;;
23282;SDS011;11810;51.178;3.878;2022-09-11T02:39:06;0.15;;;0.15;;
23282;SDS011;11810;51.178;3.878;2022-09-11T02:41:54;0.47;;;0.47;;
23282;SDS011;11810;51.178;3.878;2022-09-11T02:44:53;1.98;;;1.08;;
23282;SDS011;11810;51.178;3.878;2022-09-11T03:00:34;0.45;;;0.38;;
23282;SDS011;11810;51.178;3.878;2022-09-11T03:03:00;0.30;;;0.30;;
23282;SDS011;11810;51.178;3.878;2022-09-11T03:05:27;0.15;;;0.15;;
23282;SDS011;11810;51.178;3.878;2022-09-11T03:07:53;0.82;;;0.82;;
23282;SDS011;11810;51.178;3.878;2022-09-11T03:10:19;0.20;;;0.20;;
23282;SDS011;11810;51.178;3.878;2022-09-11T03:12:45;0.35;;;0.35;;
23282;SDS011;11810;51.178;3.878;2022-09-11T03:15:11;0.55;;;0.55;;
23282;SDS011;11810;51.178;3.878;2022-09-11T03:17:38;0.35;;;0.35;;
23282;SDS011;11810;51.178;3.878;2022-09-11T03:20:04;0.77;;;0.43;;
23282;SDS011;11810;51.178;3.878;2022-09-11T03:22:31;0.10;;;0.10;;
23282;SDS011;11810;51.178;3.878;2022-09-11T03:24:57;1.05;;;0.95;;
23282;SDS011;11810;51.178;3.878;2022-09-11T03:27:23;0.45;;;0.45;;
23282;SDS011;11810;51.178;3.878;2022-09-11T03:29:48;0.55;;;0.55;;
23282;SDS011;11810;51.178;3.878;2022-09-11T03:32:14;0.45;;;0.45;;
23282;SDS011;11810;51.178;3.878;2022-09-11T03:34:40;1.67;;;1.58;;
23282;SDS011;11810;51.178;3.878;2022-09-11T03:37:06;0.20;;;0.20;;
23282;SDS011;11810;51.178;3.878;2022-09-11T03:39:32;0.10;;;0.10;;
23282;SDS011;11810;51.178;3.878;2022-09-11T03:41:58;0.10;;;0.10;;
23282;SDS011;11810;51.178;3.878;2022-09-11T03:44:25;0.22;;;0.22;;
23282;SDS011;11810;51.178;3.878;2022-09-11T03:46:51;0.40;;;0.40;;
23282;SDS011;11810;51.178;3.878;2022-09-11T03:49:17;0.10;;;0.10;;
23282;SDS011;11810;51.178;3.878;2022-09-11T03:51:44;0.30;;;0.30;;
23282;SDS011;11810;51.178;3.878;2022-09-11T03:54:11;0.38;;;0.38;;
23282;SDS011;11810;51.178;3.878;2022-09-11T03:56:40;0.10;;;0.10;;
23282;SDS011;11810;51.178;3.878;2022-09-11T03:59:07;0.73;;;0.63;;
23282;SDS011;11810;51.178;3.878;2022-09-11T04:01:33;0.30;;;0.30;;
23282;SDS011;11810;51.178;3.878;2022-09-11T04:03:59;0.77;;;0.77;;
23282;SDS011;11810;51.178;3.878;2022-09-11T04:06:26;0.60;;;0.60;;
23282;SDS011;11810;51.178;3.878;2022-09-11T04:08:52;3.30;;;1.48;;
23282;SDS011;11810;51.178;3.878;2022-09-11T04:11:18;0.57;;;0.57;;
23282;SDS011;11810;51.178;3.878;2022-09-11T04:13:44;0.25;;;0.25;;
23282;SDS011;11810;51.178;3.878;2022-09-11T04:16:11;0.40;;;0.40;;
23282;SDS011;11810;51.178;3.878;2022-09-11T04:18:40;0.40;;;0.40;;
23282;SDS011;11810;51.178;3.878;2022-09-11T04:21:08;0.43;;;0.43;;
23282;SDS011;11810;51.178;3.878;2022-09-11T04:23:37;0.10;;;0.10;;
23282;SDS011;11810;51.178;3.878;2022-09-11T04:26:11;1.40;;;1.13;;
23282;SDS011;11810;51.178;3.878;2022-09-11T04:28:42;0.20;;;0.20;;
23282;SDS011;11810;51.178;3.878;2022-09-11T04:31:08;1.38;;;0.65;;
23282;SDS011;11810;51.178;3.878;2022-09-11T04:33:34;0.20;;;0.20;;
23282;SDS011;11810;51.178;3.878;2022-09-11T04:36:04;0.10;;;0.10;;
23282;SDS011;11810;51.178;3.878;2022-09-11T04:38:38;0.10;;;0.10;;
23282;SDS011;11810;51.178;3.878;2022-09-11T04:41:05;1.35;;;1.30;;
23282;SDS011;11810;51.178;3.878;2022-09-11T04:43:34;1.00;;;0.93;;
23282;SDS011;11810;51.178;3.878;2022-09-11T04:46:05;0.15;;;0.15;;
23282;SDS011;11810;51.178;3.878;2022-09-11T04:48:34;0.88;;;0.82;;
23282;SDS011;11810;51.178;3.878;2022-09-11T04:51:03;0.32;;;0.32;;
23282;SDS011;11810;51.178;3.878;2022-09-11T04:53:31;0.20;;;0.20;;
23282;SDS011;11810;51.178;3.878;2022-09-11T04:56:05;0.47;;;0.47;;
23282;SDS011;11810;51.178;3.878;2022-09-11T04:58:33;0.82;;;0.68;;
23282;SDS011;11810;51.178;3.878;2022-09-11T05:01:00;0.45;;;0.45;;
23282;SDS011;11810;51.178;3.878;2022-09-11T05:03:30;0.75;;;0.75;;
23282;SDS011;11810;51.178;3.878;2022-09-11T05:05:56;1.92;;;1.45;;
23282;SDS011;11810;51.178;3.878;2022-09-11T05:08:25;0.50;;;0.50;;
23282;SDS011;11810;51.178;3.878;2022-09-11T05:10:51;0.13;;;0.13;;
23282;SDS011;11810;51.178;3.878;2022-09-11T05:13:17;0.10;;;0.10;;
23282;SDS011;11810;51.178;3.878;2022-09-11T05:15:43;0.10;;;0.10;;
23282;SDS011;11810;51.178;3.878;2022-09-11T05:18:09;0.10;;;0.10;;
23282;SDS011;11810;51.178;3.878;2022-09-11T05:20:36;0.63;;;0.63;;
23282;SDS011;11810;51.178;3.878;2022-09-11T05:23:04;0.65;;;0.65;;
23282;SDS011;11810;51.178;3.878;2022-09-11T05:25:31;0.15;;;0.15;;
23282;SDS011;11810;51.178;3.878;2022-09-11T05:27:57;0.70;;;0.70;;
23282;SDS011;11810;51.178;3.878;2022-09-11T05:30:23;1.13;;;0.73;;
23282;SDS011;11810;51.178;3.878;2022-09-11T05:32:52;1.27;;;1.15;;
23282;SDS011;11810;51.178;3.878;2022-09-11T05:35:20;4.30;;;0.90;;
23282;SDS011;11810;51.178;3.878;2022-09-11T05:37:48;0.57;;;0.57;;
23282;SDS011;11810;51.178;3.878;2022-09-11T05:40:15;1.33;;;1.33;;
23282;SDS011;11810;51.178;3.878;2022-09-11T05:42:41;0.15;;;0.15;;
23282;SDS011;11810;51.178;3.878;2022-09-11T05:45:07;0.22;;;0.22;;
23282;SDS011;11810;51.178;3.878;2022-09-11T05:47:33;0.38;;;0.38;;
23282;SDS011;11810;51.178;3.878;2022-09-11T05:49:59;0.32;;;0.32;;
23282;SDS011;11810;51.178;3.878;2022-09-11T05:52:26;1.17;;;1.10;;
23282;SDS011;11810;51.178;3.878;2022-09-11T05:54:53;1.00;;;0.52;;
23282;SDS011;11810;51.178;3.878;2022-09-11T05:57:20;0.45;;;0.45;;
23282;SDS011;11810;51.178;3.878;2022-09-11T05:59:46;0.68;;;0.68;;
23282;SDS011;11810;51.178;3.878;2022-09-11T06:02:12;0.68;;;0.65;;
23282;SDS011;11810;51.178;3.878;2022-09-11T06:04:38;0.22;;;0.22;;
23282;SDS011;11810;51.178;3.878;2022-09-11T06:07:04;0.98;;;0.98;;
23282;SDS011;11810;51.178;3.878;2022-09-11T06:09:30;0.10;;;0.10;;
23282;SDS011;11810;51.178;3.878;2022-09-11T06:11:56;0.90;;;0.88;;
23282;SDS011;11810;51.178;3.878;2022-09-11T06:14:22;1.67;;;1.58;;
23282;SDS011;11810;51.178;3.878;2022-09-11T06:16:49;1.92;;;1.75;;
23282;SDS011;11810;51.178;3.878;2022-09-11T06:19:16;1.02;;;1.02;;
23282;SDS011;11810;51.178;3.878;2022-09-11T06:21:42;0.43;;;0.43;;
23282;SDS011;11810;51.178;3.878;2022-09-11T06:24:08;0.65;;;0.65;;
23282;SDS011;11810;51.178;3.878;2022-09-11T06:26:34;1.02;;;1.00;;
23282;SDS011;11810;51.178;3.878;2022-09-11T06:29:00;0.40;;;0.40;;
23282;SDS011;11810;51.178;3.878;2022-09-11T06:31:27;0.38;;;0.38;;
23282;SDS011;11810;51.178;3.878;2022-09-11T06:33:54;1.88;;;1.77;;
23282;SDS011;11810;51.178;3.878;2022-09-11T06:36:24;0.52;;;0.52;;
23282;SDS011;11810;51.178;3.878;2022-09-11T06:38:51;2.88;;;1.80;;
23282;SDS011;11810;51.178;3.878;2022-09-11T06:41:19;0.13;;;0.13;;
23282;SDS011;11810;51.178;3.878;2022-09-11T06:43:45;0.75;;;0.75;;
23282;SDS011;11810;51.178;3.878;2022-09-11T06:46:17;0.30;;;0.28;;
23282;SDS011;11810;51.178;3.878;2022-09-11T06:48:45;0.68;;;0.68;;
23282;SDS011;11810;51.178;3.878;2022-09-11T06:51:14;1.10;;;1.10;;
23282;SDS011;11810;51.178;3.878;2022-09-11T06:53:41;1.23;;;0.98;;
23282;SDS011;11810;51.178;3.878;2022-09-11T06:56:09;4.30;;;1.30;;
23282;SDS011;11810;51.178;3.878;2022-09-11T06:58:37;3.40;;;2.30;;
23282;SDS011;11810;51.178;3.878;2022-09-11T07:01:04;2.17;;;1.98;;
23282;SDS011;11810;51.178;3.878;2022-09-11T07:03:31;1.15;;;1.15;;
23282;SDS011;11810;51.178;3.878;2022-09-11T07:05:58;1.05;;;1.00;;
23282;SDS011;11810;51.178;3.878;2022-09-11T07:08:24;0.52;;;0.52;;
23282;SDS011;11810;51.178;3.878;2022-09-11T07:10:51;1.83;;;1.73;;
23282;SDS011;11810;51.178;3.878;2022-09-11T07:13:17;1.60;;;1.50;;
23282;SDS011;11810;51.178;3.878;2022-09-11T07:15:43;1.85;;;1.75;;
23282;SDS011;11810;51.178;3.878;2022-09-11T07:18:12;1.23;;;1.23;;
23282;SDS011;11810;51.178;3.878;2022-09-11T07:20:38;1.00;;;0.95;;
23282;SDS011;11810;51.178;3.878;2022-09-11T07:23:06;2.53;;;2.28;;
23282;SDS011;11810;51.178;3.878;2022-09-11T07:25:34;0.52;;;0.52;;
23282;SDS011;11810;51.178;3.878;2022-09-11T07:28:02;0.10;;;0.10;;
23282;SDS011;11810;51.178;3.878;2022-09-11T07:30:29;3.25;;;0.98;;
23282;SDS011;11810;51.178;3.878;2022-09-11T07:32:56;1.20;;;0.70;;
23282;SDS011;11810;51.178;3.878;2022-09-11T07:35:22;2.63;;;1.88;;
23282;SDS011;11810;51.178;3.878;2022-09-11T07:37:48;1.08;;;1.02;;
23282;SDS011;11810;51.178;3.878;2022-09-11T07:40:16;0.88;;;0.88;;
23282;SDS011;11810;51.178;3.878;2022-09-11T07:42:43;1.67;;;1.58;;
23282;SDS011;11810;51.178;3.878;2022-09-11T07:45:09;1.08;;;1.05;;
23282;SDS011;11810;51.178;3.878;2022-09-11T07:47:35;1.35;;;1.25;;
23282;SDS011;11810;51.178;3.878;2022-09-11T07:50:03;3.25;;;1.17;;
23282;SDS011;11810;51.178;3.878;2022-09-11T07:52:29;1.17;;;1.02;;
23282;SDS011;11810;51.178;3.878;2022-09-11T07:54:55;0.73;;;0.73;;
23282;SDS011;11810;51.178;3.878;2022-09-11T07:57:21;0.70;;;0.70;;
23282;SDS011;11810;51.178;3.878;2022-09-11T07:59:48;0.30;;;0.30;;
23282;SDS011;11810;51.178;3.878;2022-09-11T08:02:14;0.38;;;0.38;;
23282;SDS011;11810;51.178;3.878;2022-09-11T08:04:42;3.50;;;2.30;;
23282;SDS011;11810;51.178;3.878;2022-09-11T08:07:08;0.47;;;0.47;;
23282;SDS011;11810;51.178;3.878;2022-09-11T08:09:34;1.02;;;0.77;;
23282;SDS011;11810;51.178;3.878;2022-09-11T08:12:00;0.32;;;0.28;;
23282;SDS011;11810;51.178;3.878;2022-09-11T08:14:27;2.00;;;0.77;;
23282;SDS011;11810;51.178;3.878;2022-09-11T08:16:53;1.08;;;0.82;;
23282;SDS011;11810;51.178;3.878;2022-09-11T08:19:20;6.00;;;1.65;;
23282;SDS011;11810;51.178;3.878;2022-09-11T08:21:47;6.03;;;1.35;;
23282;SDS011;11810;51.178;3.878;2022-09-11T08:24:14;0.65;;;0.60;;
23282;SDS011;11810;51.178;3.878;2022-09-11T08:26:42;1.20;;;1.10;;
23282;SDS011;11810;51.178;3.878;2022-09-11T08:29:09;0.90;;;0.30;;
23282;SDS011;11810;51.178;3.878;2022-09-11T08:31:35;1.50;;;1.42;;
23282;SDS011;11810;51.178;3.878;2022-09-11T08:34:02;2.15;;;1.85;;
23282;SDS011;11810;51.178;3.878;2022-09-11T08:36:28;0.45;;;0.45;;
23282;SDS011;11810;51.178;3.878;2022-09-11T08:38:54;0.57;;;0.57;;
23282;SDS011;11810;51.178;3.878;2022-09-11T08:41:24;0.20;;;0.20;;
23282;SDS011;11810;51.178;3.878;2022-09-11T08:43:53;0.73;;;0.73;;
23282;SDS011;11810;51.178;3.878;2022-09-11T08:46:40;2.10;;;1.00;;
23282;SDS011;11810;51.178;3.878;2022-09-11T08:51:50;0.10;;;0.10;;
23282;SDS011;11810;51.178;3.878;2022-09-11T08:54:23;0.22;;;0.22;;
23282;SDS011;11810;51.178;3.878;2022-09-11T09:14:01;0.32;;;0.32;;
23282;SDS011;11810;51.178;3.878;2022-09-11T09:19:38;2.28;;;1.77;;
23282;SDS011;11810;51.178;3.878;2022-09-11T09:25:09;14.13;;;10.35;;
23282;SDS011;11810;51.178;3.878;2022-09-11T09:27:47;16.73;;;12.02;;
23282;SDS011;11810;51.178;3.878;2022-09-11T09:30:24;15.60;;;12.63;;
23282;SDS011;11810;51.178;3.878;2022-09-11T09:33:04;14.75;;;11.07;;
23282;SDS011;11810;51.178;3.878;2022-09-11T09:35:40;17.67;;;13.50;;
23282;SDS011;11810;51.178;3.878;2022-09-11T09:38:10;16.95;;;11.70;;
23282;SDS011;11810;51.178;3.878;2022-09-11T09:40:38;16.92;;;12.93;;
23282;SDS011;11810;51.178;3.878;2022-09-11T09:44:10;16.27;;;11.90;;
23282;SDS011;11810;51.178;3.878;2022-09-11T09:46:28;14.20;;;10.52;;
23282;SDS011;11810;51.178;3.878;2022-09-11T09:49:09;20.15;;;13.43;;
23282;SDS011;11810;51.178;3.878;2022-09-11T09:51:39;13.68;;;12.27;;
23282;SDS011;11810;51.178;3.878;2022-09-11T09:54:06;15.80;;;11.85;;
23282;SDS011;11810;51.178;3.878;2022-09-11T09:56:37;17.90;;;13.23;;
23282;SDS011;11810;51.178;3.878;2022-09-11T10:04:08;14.10;;;9.73;;
23282;SDS011;11810;51.178;3.878;2022-09-11T10:06:37;9.50;;;6.65;;
23282;SDS011;11810;51.178;3.878;2022-09-11T10:09:03;7.70;;;6.90;;
23282;SDS011;11810;51.178;3.878;2022-09-11T10:11:30;10.20;;;7.47;;
23282;SDS011;11810;51.178;3.878;2022-09-11T10:13:56;9.85;;;7.18;;
23282;SDS011;11810;51.178;3.878;2022-09-11T10:16:22;10.85;;;8.45;;
23282;SDS011;11810;51.178;3.878;2022-09-11T10:18:50;12.75;;;11.48;;
23282;SDS011;11810;51.178;3.878;2022-09-11T10:24:43;16.50;;;13.25;;
23282;SDS011;11810;51.178;3.878;2022-09-11T10:26:44;20.98;;;13.90;;
23282;SDS011;11810;51.178;3.878;2022-09-11T10:29:21;17.70;;;12.70;;
23282;SDS011;11810;51.178;3.878;2022-09-11T10:31:59;16.42;;;13.55;;
23282;SDS011;11810;51.178;3.878;2022-09-11T10:34:27;19.30;;;14.55;;
23282;SDS011;11810;51.178;3.878;2022-09-11T10:37:22;21.77;;;16.33;;
23282;SDS011;11810;51.178;3.878;2022-09-11T10:39:55;16.98;;;13.60;;
23282;SDS011;11810;51.178;3.878;2022-09-11T10:42:31;18.88;;;13.23;;
23282;SDS011;11810;51.178;3.878;2022-09-11T10:45:13;17.10;;;13.50;;
23282;SDS011;11810;51.178;3.878;2022-09-11T10:47:41;18.10;;;12.90;;
23282;SDS011;11810;51.178;3.878;2022-09-11T10:57:44;14.20;;;12.50;;
23282;SDS011;11810;51.178;3.878;2022-09-11T11:02:58;12.35;;;7.15;;
23282;SDS011;11810;51.178;3.878;2022-09-11T11:30:35;4.93;;;4.35;;
23282;SDS011;11810;51.178;3.878;2022-09-11T11:35:42;9.25;;;4.13;;
23282;SDS011;11810;51.178;3.878;2022-09-11T11:38:15;12.48;;;4.00;;
23282;SDS011;11810;51.178;3.878;2022-09-11T11:41:05;7.75;;;4.05;;
23282;SDS011;11810;51.178;3.878;2022-09-11T11:43:54;8.50;;;4.40;;
23282;SDS011;11810;51.178;3.878;2022-09-11T11:46:24;6.25;;;4.13;;
23282;SDS011;11810;51.178;3.878;2022-09-11T11:49:38;5.25;;;3.65;;
23282;SDS011;11810;51.178;3.878;2022-09-11T11:52:10;5.47;;;4.38;;
23282;SDS011;11810;51.178;3.878;2022-09-11T11:55:16;6.00;;;3.97;;
23282;SDS011;11810;51.178;3.878;2022-09-11T11:58:26;4.95;;;3.55;;
23282;SDS011;11810;51.178;3.878;2022-09-11T12:00:43;6.05;;;3.40;;
23282;SDS011;11810;51.178;3.878;2022-09-11T12:03:20;14.90;;;3.75;;
23282;SDS011;11810;51.178;3.878;2022-09-11T12:06:05;5.53;;;3.58;;
23282;SDS011;11810;51.178;3.878;2022-09-11T12:08:43;7.22;;;3.80;;
23282;SDS011;11810;51.178;3.878;2022-09-11T12:11:10;5.57;;;3.30;;
23282;SDS011;11810;51.178;3.878;2022-09-11T12:13:43;5.70;;;3.28;;
23282;SDS011;11810;51.178;3.878;2022-09-11T12:21:32;2.80;;;2.08;;
23282;SDS011;11810;51.178;3.878;2022-09-11T12:24:20;8.88;;;2.80;;
23282;SDS011;11810;51.178;3.878;2022-09-11T12:29:57;9.27;;;3.80;;
23282;SDS011;11810;51.178;3.878;2022-09-11T12:32:47;6.05;;;3.72;;
23282;SDS011;11810;51.178;3.878;2022-09-11T12:35:24;4.03;;;3.17;;
23282;SDS011;11810;51.178;3.878;2022-09-11T12:38:23;5.60;;;2.47;;
23282;SDS011;11810;51.178;3.878;2022-09-11T12:43:51;6.43;;;2.90;;
23282;SDS011;11810;51.178;3.878;2022-09-11T12:51:25;6.50;;;2.22;;
23282;SDS011;11810;51.178;3.878;2022-09-11T12:54:01;4.50;;;2.20;;
23282;SDS011;11810;51.178;3.878;2022-09-11T12:59:27;5.40;;;2.40;;
23282;SDS011;11810;51.178;3.878;2022-09-11T13:01:57;7.05;;;2.13;;
23282;SDS011;11810;51.178;3.878;2022-09-11T13:04:24;4.80;;;2.08;;
23282;SDS011;11810;51.178;3.878;2022-09-11T13:06:58;5.78;;;2.70;;
23282;SDS011;11810;51.178;3.878;2022-09-11T13:09:37;3.92;;;2.53;;
23282;SDS011;11810;51.178;3.878;2022-09-11T13:14:53;6.07;;;2.80;;
23282;SDS011;11810;51.178;3.878;2022-09-11T13:20:36;13.25;;;3.00;;
23282;SDS011;11810;51.178;3.878;2022-09-11T13:22:39;8.95;;;2.70;;
23282;SDS011;11810;51.178;3.878;2022-09-11T13:25:16;4.88;;;2.20;;
23282;SDS011;11810;51.178;3.878;2022-09-11T13:27:53;3.78;;;2.60;;
23282;SDS011;11810;51.178;3.878;2022-09-11T13:30:23;3.25;;;2.10;;
23282;SDS011;11810;51.178;3.878;2022-09-11T13:35:32;4.53;;;2.20;;
23282;SDS011;11810;51.178;3.878;2022-09-11T13:38:09;4.60;;;2.00;;
23282;SDS011;11810;51.178;3.878;2022-09-11T13:43:50;7.10;;;2.10;;
23282;SDS011;11810;51.178;3.878;2022-09-11T13:46:22;3.80;;;2.30;;
23282;SDS011;11810;51.178;3.878;2022-09-11T13:51:45;6.90;;;2.83;;
23282;SDS011;11810;51.178;3.878;2022-09-11T13:54:13;2.92;;;2.63;;
23282;SDS011;11810;51.178;3.878;2022-09-11T14:04:56;5.80;;;2.35;;
23282;SDS011;11810;51.178;3.878;2022-09-11T14:07:39;7.85;;;2.17;;
23282;SDS011;11810;51.178;3.878;2022-09-11T14:15:42;5.32;;;2.47;;
23282;SDS011;11810;51.178;3.878;2022-09-11T14:18:27;3.97;;;2.22;;
23282;SDS011;11810;51.178;3.878;2022-09-11T14:20:58;5.72;;;2.80;;
23282;SDS011;11810;51.178;3.878;2022-09-11T14:23:28;4.97;;;2.75;;
23282;SDS011;11810;51.178;3.878;2022-09-11T14:26:15;2.67;;;2.08;;
23282;SDS011;11810;51.178;3.878;2022-09-11T14:31:28;9.25;;;3.55;;
23282;SDS011;11810;51.178;3.878;2022-09-11T14:34:10;7.85;;;3.35;;
23282;SDS011;11810;51.178;3.878;2022-09-11T14:36:55;7.90;;;3.58;;
23282;SDS011;11810;51.178;3.878;2022-09-11T14:39:38;6.53;;;4.03;;
23282;SDS011;11810;51.178;3.878;2022-09-11T14:42:06;6.78;;;3.95;;
23282;SDS011;11810;51.178;3.878;2022-09-11T14:44:34;5.30;;;3.95;;
23282;SDS011;11810;51.178;3.878;2022-09-11T14:47:03;6.43;;;3.90;;
23282;SDS011;11810;51.178;3.878;2022-09-11T14:49:29;5.45;;;3.63;;
23282;SDS011;11810;51.178;3.878;2022-09-11T14:51:58;8.57;;;5.15;;
23282;SDS011;11810;51.178;3.878;2022-09-11T14:54:26;6.30;;;4.07;;
23282;SDS011;11810;51.178;3.878;2022-09-11T14:56:57;5.05;;;4.55;;
23282;SDS011;11810;51.178;3.878;2022-09-11T14:59:24;8.27;;;5.15;;
23282;SDS011;11810;51.178;3.878;2022-09-11T15:01:53;7.03;;;4.40;;
23282;SDS011;11810;51.178;3.878;2022-09-11T15:04:20;7.38;;;4.97;;
23282;SDS011;11810;51.178;3.878;2022-09-11T15:06:50;9.32;;;5.15;;
23282;SDS011;11810;51.178;3.878;2022-09-11T15:09:18;6.53;;;5.10;;
23282;SDS011;11810;51.178;3.878;2022-09-11T15:11:43;5.75;;;4.90;;
23282;SDS011;11810;51.178;3.878;2022-09-11T15:14:10;7.10;;;4.22;;
23282;SDS011;11810;51.178;3.878;2022-09-11T15:16:37;6.85;;;4.05;;
23282;SDS011;11810;51.178;3.878;2022-09-11T15:19:03;5.18;;;3.78;;
23282;SDS011;11810;51.178;3.878;2022-09-11T15:21:29;10.40;;;3.70;;
23282;SDS011;11810;51.178;3.878;2022-09-11T15:23:55;6.65;;;4.00;;
23282;SDS011;11810;51.178;3.878;2022-09-11T15:26:21;5.45;;;4.00;;
23282;SDS011;11810;51.178;3.878;2022-09-11T15:28:47;5.53;;;3.72;;
23282;SDS011;11810;51.178;3.878;2022-09-11T15:31:15;8.27;;;3.85;;
23282;SDS011;11810;51.178;3.878;2022-09-11T15:33:42;7.13;;;2.78;;
23282;SDS011;11810;51.178;3.878;2022-09-11T15:36:11;4.65;;;2.58;;
23282;SDS011;11810;51.178;3.878;2022-09-11T15:38:38;4.75;;;2.83;;
23282;SDS011;11810;51.178;3.878;2022-09-11T15:41:05;7.07;;;3.67;;
23282;SDS011;11810;51.178;3.878;2022-09-11T15:43:34;6.15;;;3.40;;
23282;SDS011;11810;51.178;3.878;2022-09-11T15:46:07;7.72;;;3.75;;
23282;SDS011;11810;51.178;3.878;2022-09-11T15:48:36;11.63;;;4.15;;
23282;SDS011;11810;51.178;3.878;2022-09-11T15:51:02;5.97;;;4.22;;
23282;SDS011;11810;51.178;3.878;2022-09-11T15:53:29;6.22;;;4.63;;
23282;SDS011;11810;51.178;3.878;2022-09-11T15:56:06;10.00;;;8.30;;
23282;SDS011;11810;51.178;3.878;2022-09-11T15:58:34;12.38;;;7.78;;
23282;SDS011;11810;51.178;3.878;2022-09-11T16:01:01;11.32;;;6.78;;
23282;SDS011;11810;51.178;3.878;2022-09-11T16:03:28;9.73;;;5.30;;
23282;SDS011;11810;51.178;3.878;2022-09-11T16:05:54;6.05;;;4.25;;
23282;SDS011;11810;51.178;3.878;2022-09-11T16:08:21;7.68;;;3.08;;
23282;SDS011;11810;51.178;3.878;2022-09-11T16:10:51;7.20;;;3.67;;
23282;SDS011;11810;51.178;3.878;2022-09-11T16:13:18;5.78;;;3.97;;
23282;SDS011;11810;51.178;3.878;2022-09-11T16:15:45;7.95;;;4.40;;
23282;SDS011;11810;51.178;3.878;2022-09-11T16:18:13;6.82;;;4.82;;
23282;SDS011;11810;51.178;3.878;2022-09-11T16:20:42;9.77;;;4.65;;
23282;SDS011;11810;51.178;3.878;2022-09-11T16:23:11;5.18;;;4.03;;
23282;SDS011;11810;51.178;3.878;2022-09-11T16:25:40;5.68;;;3.83;;
23282;SDS011;11810;51.178;3.878;2022-09-11T16:28:06;7.20;;;3.53;;
23282;SDS011;11810;51.178;3.878;2022-09-11T16:30:41;3.95;;;3.33;;
23282;SDS011;11810;51.178;3.878;2022-09-11T16:33:08;4.60;;;3.70;;
23282;SDS011;11810;51.178;3.878;2022-09-11T16:35:36;4.60;;;3.55;;
23282;SDS011;11810;51.178;3.878;2022-09-11T16:38:02;7.20;;;4.53;;
23282;SDS011;11810;51.178;3.878;2022-09-11T16:40:31;7.53;;;4.00;;
23282;SDS011;11810;51.178;3.878;2022-09-11T16:42:59;5.70;;;3.50;;
23282;SDS011;11810;51.178;3.878;2022-09-11T16:45:26;7.03;;;3.85;;
23282;SDS011;11810;51.178;3.878;2022-09-11T16:47:56;7.63;;;4.57;;
23282;SDS011;11810;51.178;3.878;2022-09-11T16:50:23;10.35;;;7.22;;
23282;SDS011;11810;51.178;3.878;2022-09-11T16:52:50;13.07;;;8.38;;
23282;SDS011;11810;51.178;3.878;2022-09-11T16:55:16;7.60;;;6.78;;
23282;SDS011;11810;51.178;3.878;2022-09-11T16:57:44;7.90;;;5.70;;
23282;SDS011;11810;51.178;3.878;2022-09-11T17:00:11;6.43;;;4.88;;
23282;SDS011;11810;51.178;3.878;2022-09-11T17:02:38;7.20;;;4.90;;
23282;SDS011;11810;51.178;3.878;2022-09-11T17:05:04;6.45;;;5.47;;
23282;SDS011;11810;51.178;3.878;2022-09-11T17:07:32;6.10;;;5.15;;
23282;SDS011;11810;51.178;3.878;2022-09-11T17:09:59;8.45;;;5.88;;
23282;SDS011;11810;51.178;3.878;2022-09-11T17:12:25;11.77;;;6.30;;
23282;SDS011;11810;51.178;3.878;2022-09-11T17:14:52;10.90;;;6.07;;
23282;SDS011;11810;51.178;3.878;2022-09-11T17:17:19;8.65;;;6.05;;
23282;SDS011;11810;51.178;3.878;2022-09-11T17:19:47;6.45;;;5.78;;
23282;SDS011;11810;51.178;3.878;2022-09-11T17:22:15;6.05;;;5.47;;
23282;SDS011;11810;51.178;3.878;2022-09-11T17:24:41;9.05;;;5.70;;
23282;SDS011;11810;51.178;3.878;2022-09-11T17:27:07;13.63;;;6.07;;
23282;SDS011;11810;51.178;3.878;2022-09-11T17:29:33;7.88;;;6.47;;
23282;SDS011;11810;51.178;3.878;2022-09-11T17:31:59;7.70;;;5.57;;
23282;SDS011;11810;51.178;3.878;2022-09-11T17:34:25;7.95;;;5.82;;
23282;SDS011;11810;51.178;3.878;2022-09-11T17:36:51;10.95;;;6.93;;
23282;SDS011;11810;51.178;3.878;2022-09-11T17:39:17;7.32;;;6.50;;